Terminal Aerodrome Forecast
Issued by NWS

Home | Current Version | Previous Version | Text Only | Print | Product List | Glossary Off
Versions: 1 2 3 4 5 6 7 8 9 10 11 12 13 14 15 16 17 18 19

000
FTUS42 KMHX 221100
TAFOAJ
TAF
KOAJ 221123Z 2212/2312 VRB03KT 2SM BR BKN003
      TEMPO 2212/2213 1/2SM FG
     FM221300 14005KT P6SM VCSH SCT010 BKN030
     FM221600 15008KT P6SM VCTS SCT015 BKN035CB
     FM230000 18003KT P6SM SCT025 OVC120
     FM230600 20003KT 4SM BR SCT007
      AMD LTD TO CLD VIS AND WIND=

USA.gov is the U.S. government's official web portal to all federal, state and local government web resources and services.